Time;durP1;ratioP1;P1;durP2;ratioP2;P2;SDS_P1;SDS_P2;PMS_P1;PMS_P2;Temp;Humidity;BMP_temperature;BMP_pressure;BME280_temperature;BME280_humidity;BME280_pressure;Samples;Min_cycle;Max_cycle;Signal;HPM_P1;HPM_P2
2021/03/14 00:00:28;;;;;;;8.90;1.63;;;;;;;6.12;100.00;98416.47;4973817;28;20170;-76
2021/03/14 00:02:53;;;;;;;6.22;2.10;;;;;;;6.07;100.00;98424.88;4973571;28;20034;-76
2021/03/14 00:05:20;;;;;;;8.05;2.30;;;;;;;5.92;100.00;98434.00;4979997;28;20092;-76
2021/03/14 00:07:46;;;;;;;8.27;2.00;;;;;;;5.94;100.00;98432.47;4975318;28;20045;-77
2021/03/14 00:10:12;;;;;;;4.68;2.30;;;;;;;6.06;100.00;98432.09;4992727;28;20034;-76
2021/03/14 00:12:38;;;;;;;3.55;1.60;;;;;;;5.98;100.00;98440.50;4979264;28;20554;-75
2021/03/14 00:15:04;;;;;;;5.25;1.83;;;;;;;5.99;100.00;98444.69;4976405;28;20031;-77
2021/03/14 00:17:29;;;;;;;2.08;1.27;;;;;;;6.04;100.00;98452.34;4979310;28;20042;-76
2021/03/14 00:19:57;;;;;;;3.40;1.20;;;;;;;6.02;100.00;98468.72;4977193;28;20121;-76
2021/03/14 00:22:23;;;;;;;4.13;1.45;;;;;;;6.12;100.00;98453.88;4983801;28;20113;-76
2021/03/14 00:24:48;;;;;;;10.30;1.88;;;;;;;6.04;100.00;98473.72;4974631;28;20118;-76
2021/03/14 00:27:14;;;;;;;8.43;1.70;;;;;;;6.00;100.00;98467.59;4978894;28;20030;-76
2021/03/14 00:29:42;;;;;;;4.03;1.60;;;;;;;6.02;100.00;98476.00;4968331;28;20872;-76
2021/03/14 00:32:08;;;;;;;3.65;1.83;;;;;;;6.19;100.00;98484.03;4975091;28;20502;-76
2021/03/14 00:34:33;;;;;;;7.50;1.80;;;;;;;6.23;100.00;98497.41;4976901;28;20037;-76
2021/03/14 00:36:59;;;;;;;3.72;2.08;;;;;;;6.10;100.00;98494.31;4958167;28;20077;-76
2021/03/14 00:39:24;;;;;;;6.15;2.17;;;;;;;6.22;100.00;98515.34;4968506;28;20411;-76
2021/03/14 00:41:50;;;;;;;6.03;1.95;;;;;;;6.24;100.00;98509.63;4973743;28;20396;-78
2021/03/14 00:44:16;;;;;;;11.30;2.25;;;;;;;6.22;100.00;98519.91;4986265;28;20480;-76
2021/03/14 00:46:41;;;;;;;10.25;2.60;;;;;;;6.28;100.00;98521.09;4962212;28;20089;-76
2021/03/14 00:49:07;;;;;;;6.60;2.78;;;;;;;6.21;100.00;98531.78;4972720;28;20054;-76
2021/03/14 00:51:32;;;;;;;10.40;2.63;;;;;;;6.25;100.00;98537.88;4966698;28;20034;-76
2021/03/14 00:53:58;;;;;;;11.75;2.67;;;;;;;6.33;100.00;98544.75;4964778;28;20039;-76
2021/03/14 00:56:27;;;;;;;9.10;2.53;;;;;;;6.31;100.00;98553.16;4971092;28;20034;-76
2021/03/14 00:58:52;;;;;;;6.53;3.05;;;;;;;6.38;100.00;98563.88;4972350;28;20042;-78
2021/03/14 01:01:20;;;;;;;7.90;3.03;;;;;;;6.47;100.00;98568.84;4976032;28;20071;-76
2021/03/14 01:03:47;;;;;;;8.00;2.45;;;;;;;6.47;100.00;98573.44;4958935;28;20503;-76
2021/03/14 01:06:12;;;;;;;10.15;2.47;;;;;;;6.50;100.00;98586.84;4967302;28;20108;-77
2021/03/14 01:08:38;;;;;;;7.80;2.28;;;;;;;6.44;100.00;98603.59;4970850;28;20122;-76
2021/03/14 01:11:04;;;;;;;6.75;1.90;;;;;;;6.37;100.00;98599.75;4961959;28;20098;-76
2021/03/14 01:13:56;;;;;;;5.63;1.23;;;;;;;6.37;100.00;98610.44;4977281;28;20042;-75
2021/03/14 01:16:25;;;;;;;5.90;1.15;;;;;;;6.15;100.00;98627.56;4967474;28;20042;-77
2021/03/14 01:18:52;;;;;;;3.17;1.02;;;;;;;6.26;100.00;98630.25;4986857;28;20063;-76
2021/03/14 01:21:17;;;;;;;4.50;1.20;;;;;;;6.29;100.00;98630.28;4975588;28;20043;-76
2021/03/14 01:23:43;;;;;;;3.88;1.02;;;;;;;6.26;100.00;98647.06;4967676;28;20039;-76
2021/03/14 01:26:08;;;;;;;4.40;1.17;;;;;;;6.22;100.00;98640.16;4967143;28;20066;-76
2021/03/14 01:28:34;;;;;;;4.57;1.23;;;;;;;6.23;100.00;98652.41;4962883;28;20122;-76
2021/03/14 01:31:00;;;;;;;4.05;1.10;;;;;;;6.28;100.00;98663.50;4969457;28;20113;-76
2021/03/14 01:33:26;;;;;;;4.35;1.00;;;;;;;6.25;100.00;98669.56;4972754;28;20045;-76
2021/03/14 01:35:51;;;;;;;3.17;0.90;;;;;;;6.34;100.00;98671.91;4971363;28;20034;-77
2021/03/14 01:38:17;;;;;;;2.38;1.30;;;;;;;6.35;100.00;98673.44;4968431;28;20038;-76
2021/03/14 01:40:42;;;;;;;3.70;1.30;;;;;;;6.19;100.00;98675.66;4972665;28;20134;-76
2021/03/14 01:43:08;;;;;;;0.93;0.85;;;;;;;6.24;100.00;98686.00;4988593;28;20105;-76
2021/03/14 01:45:34;;;;;;;3.22;0.90;;;;;;;6.19;100.00;98689.03;4973361;28;20038;-76
2021/03/14 01:48:02;;;;;;;3.47;1.27;;;;;;;6.19;100.00;98699.72;4983967;28;20035;-76
2021/03/14 01:50:27;;;;;;;4.65;1.45;;;;;;;6.20;100.00;98706.56;4972778;28;20521;-76
2021/03/14 01:52:55;;;;;;;2.83;1.60;;;;;;;6.28;100.00;98710.81;4973175;28;20083;-77
2021/03/14 01:55:25;;;;;;;2.65;1.58;;;;;;;6.32;100.00;98722.31;4962060;28;20062;-76
2021/03/14 01:57:51;;;;;;;4.38;1.50;;;;;;;6.16;100.00;98713.81;4965534;28;20045;-76
2021/03/14 02:00:22;;;;;;;4.10;1.65;;;;;;;6.07;100.00;98719.50;4971979;28;20065;-76
2021/03/14 02:02:47;;;;;;;4.55;2.00;;;;;;;6.15;100.00;98728.31;4978872;28;20041;-76
2021/03/14 02:05:16;;;;;;;5.85;1.95;;;;;;;6.19;100.00;98734.44;4965586;28;20472;-77
2021/03/14 02:07:44;;;;;;;7.25;2.08;;;;;;;6.20;100.00;98727.97;4963661;28;20039;-76
2021/03/14 02:10:12;;;;;;;5.05;2.25;;;;;;;6.22;100.00;98731.78;4964595;28;20043;-76
2021/03/14 02:12:59;;;;;;;15.18;2.63;;;;;;;6.24;100.00;98736.75;4962047;28;20026;-76
2021/03/14 02:15:27;;;;;;;5.22;2.15;;;;;;;6.11;100.00;98743.56;4970009;28;20027;-75
2021/03/14 02:17:53;;;;;;;6.68;2.20;;;;;;;6.19;100.00;98750.47;4969952;28;20038;-75
2021/03/14 02:20:26;;;;;;;7.70;2.20;;;;;;;6.30;100.00;98748.63;4972124;28;20559;-75
2021/03/14 02:23:04;;;;;;;12.88;2.35;;;;;;;6.37;100.00;98760.13;4972803;28;20430;-76
2021/03/14 02:25:37;;;;;;;8.98;2.80;;;;;;;6.21;100.00;98756.22;4967393;28;20118;-76
2021/03/14 02:28:04;;;;;;;10.63;2.78;;;;;;;6.23;100.00;98764.63;4960239;28;20138;-76
2021/03/14 02:30:32;;;;;;;5.68;2.55;;;;;;;6.24;100.00;98776.84;4968283;28;20042;-76
2021/03/14 02:32:58;;;;;;;9.48;2.75;;;;;;;6.21;100.00;98773.00;4972109;28;20045;-76
2021/03/14 02:35:25;;;;;;;10.52;2.88;;;;;;;6.27;100.00;98776.88;4957174;28;20039;-77
2021/03/14 02:37:53;;;;;;;9.45;2.72;;;;;;;6.25;100.00;98784.47;4968832;28;20121;-75
2021/03/14 02:40:19;;;;;;;12.00;2.78;;;;;;;6.28;100.00;98797.13;4967001;28;20566;-78
2021/03/14 02:42:46;;;;;;;12.18;3.00;;;;;;;6.33;100.00;98807.44;4958894;28;20050;-76
2021/03/14 02:45:12;;;;;;;9.27;2.72;;;;;;;6.28;100.00;98801.69;4963118;28;20055;-76
2021/03/14 02:47:39;;;;;;;9.45;2.60;;;;;;;6.41;100.00;98810.94;4972310;28;20069;-76
2021/03/14 02:50:20;;;;;;;10.13;2.45;;;;;;;6.36;100.00;98812.06;4971745;28;20447;-77
2021/03/14 02:52:46;;;;;;;11.27;2.72;;;;;;;6.35;100.00;98820.44;4968715;28;20114;-76
2021/03/14 02:55:14;;;;;;;13.60;2.63;;;;;;;6.34;100.00;98827.72;4971785;28;20035;-77
2021/03/14 02:57:41;;;;;;;11.07;2.40;;;;;;;6.33;100.00;98833.41;4969168;28;20226;-76
2021/03/14 03:00:14;;;;;;;11.77;3.28;;;;;;;6.36;100.00;98843.38;4957732;28;20035;-76
2021/03/14 03:02:43;;;;;;;13.68;3.58;;;;;;;6.42;100.00;98836.53;4970523;28;20570;-76
2021/03/14 03:05:10;;;;;;;12.02;2.97;;;;;;;6.39;100.00;98839.94;4978681;28;20055;-76
2021/03/14 03:07:36;;;;;;;10.57;3.10;;;;;;;6.38;100.00;98847.22;4970121;28;20431;-77
2021/03/14 03:10:02;;;;;;;23.13;4.10;;;;;;;6.46;100.00;98848.03;4964682;28;20033;-77
2021/03/14 03:12:28;;;;;;;13.40;3.25;;;;;;;6.33;100.00;98842.19;4978621;23;20097;-74
2021/03/14 03:14:55;;;;;;;14.48;3.40;;;;;;;6.30;100.00;98850.19;4969092;28;20034;-74
2021/03/14 03:17:25;;;;;;;12.18;3.35;;;;;;;6.44;100.00;98854.88;4964162;28;20138;-74
2021/03/14 03:19:55;;;;;;;8.02;3.22;;;;;;;6.35;100.00;98865.88;4969186;28;20031;-74
2021/03/14 03:22:21;;;;;;;11.25;2.83;;;;;;;6.31;100.00;98883.78;4972319;28;20483;-74
2021/03/14 03:24:47;;;;;;;8.43;3.50;;;;;;;6.32;100.00;98877.31;4971954;28;20035;-73
2021/03/14 03:27:13;;;;;;;11.32;3.33;;;;;;;6.41;100.00;98901.81;4983849;28;20500;-74
2021/03/14 03:29:39;;;;;;;13.30;3.28;;;;;;;6.16;100.00;98898.94;4963899;28;20492;-73
2021/03/14 03:32:05;;;;;;;10.57;3.40;;;;;;;6.24;100.00;98905.91;4965989;28;20122;-74
2021/03/14 03:34:30;;;;;;;12.60;3.90;;;;;;;6.28;100.00;98908.59;4970366;28;20170;-74
2021/03/14 03:36:56;;;;;;;8.65;3.30;;;;;;;6.27;100.00;98915.84;4984194;28;20042;-73
2021/03/14 03:39:22;;;;;;;9.07;3.60;;;;;;;6.29;100.00;98928.84;4964192;28;20061;-74
2021/03/14 03:41:53;;;;;;;9.15;3.05;;;;;;;6.40;100.00;98935.06;4973129;28;20105;-74
2021/03/14 03:44:22;;;;;;;7.53;3.53;;;;;;;6.43;100.00;98931.63;4970768;28;20050;-75
2021/03/14 03:46:51;;;;;;;15.13;3.63;;;;;;;6.33;100.00;98948.34;4971689;28;20051;-75
2021/03/14 03:49:21;;;;;;;6.40;3.30;;;;;;;6.47;100.00;98945.78;4974420;28;20026;-75
2021/03/14 03:51:49;;;;;;;9.45;3.85;;;;;;;6.33;100.00;98948.34;4969306;28;20035;-76
2021/03/14 03:54:15;;;;;;;10.65;3.35;;;;;;;6.15;100.00;98961.56;4984571;28;20035;-75
2021/03/14 03:56:41;;;;;;;13.20;3.72;;;;;;;6.25;100.00;98957.44;4974404;28;20043;-75
2021/03/14 03:59:08;;;;;;;10.93;3.63;;;;;;;6.28;100.00;98964.72;4966359;28;20045;-75
2021/03/14 04:01:35;;;;;;;8.60;3.05;;;;;;;6.36;100.00;98961.75;4972411;28;20022;-75
2021/03/14 04:04:22;;;;;;;12.30;3.80;;;;;;;6.28;100.00;98978.09;4974673;28;20128;-76
2021/03/14 04:06:56;;;;;;;12.05;3.28;;;;;;;6.34;100.00;98980.06;4933099;29;20063;-76
2021/03/14 04:09:22;;;;;;;10.00;2.92;;;;;;;6.31;100.00;98991.47;4932551;29;20123;-76
2021/03/14 04:11:49;;;;;;;8.95;3.20;;;;;;;6.36;100.00;98993.06;4934163;29;20130;-75
2021/03/14 04:14:17;;;;;;;13.68;2.97;;;;;;;6.38;100.00;98996.13;4923860;29;20032;-76
2021/03/14 04:16:44;;;;;;;6.63;3.20;;;;;;;6.38;100.00;98998.81;4935528;29;20051;-76
2021/03/14 04:19:14;;;;;;;8.23;2.63;;;;;;;6.45;100.00;98998.88;4936083;29;20528;-76
2021/03/14 04:21:40;;;;;;;9.35;3.08;;;;;;;6.51;100.00;99010.00;4935156;29;20035;-76
2021/03/14 04:24:10;;;;;;;9.73;3.13;;;;;;;6.48;100.00;99018.75;4933248;29;20056;-75
2021/03/14 04:26:38;;;;;;;12.25;3.13;;;;;;;6.45;100.00;99016.81;4931052;29;20031;-76
2021/03/14 04:29:05;;;;;;;7.78;2.53;;;;;;;6.55;100.00;99032.19;4933285;29;20059;-76
2021/03/14 04:31:30;;;;;;;6.47;2.72;;;;;;;6.57;99.99;99030.69;4932738;29;20051;-76
2021/03/14 04:33:57;;;;;;;13.52;2.60;;;;;;;6.52;99.64;99023.00;4933408;29;20050;-76
2021/03/14 04:36:24;;;;;;;10.60;3.20;;;;;;;6.46;99.83;99035.16;4933666;29;20070;-76
2021/03/14 04:38:50;;;;;;;4.15;2.28;;;;;;;6.48;100.00;99040.91;4932929;29;20039;-76
2021/03/14 04:41:17;;;;;;;7.30;2.50;;;;;;;6.52;100.00;99048.97;4931467;29;20046;-75
2021/03/14 04:43:44;;;;;;;10.90;3.25;;;;;;;6.60;100.00;99055.94;4949662;28;20050;-76
2021/03/14 04:46:14;;;;;;;10.38;2.72;;;;;;;6.61;99.56;99062.81;4981067;28;20027;-74
2021/03/14 04:48:40;;;;;;;5.95;2.42;;;;;;;6.45;100.00;99070.25;4963242;28;20046;-75
2021/03/14 04:51:06;;;;;;;10.98;2.75;;;;;;;6.52;100.00;99081.84;4971673;28;20041;-76
2021/03/14 04:53:32;;;;;;;10.43;2.75;;;;;;;6.51;99.87;99077.59;4972572;28;20123;-76
2021/03/14 04:55:59;;;;;;;11.30;3.85;;;;;;;6.56;100.00;99104.03;4969053;28;20066;-75
2021/03/14 04:58:25;;;;;;;10.57;3.15;;;;;;;6.69;99.67;99101.84;4972558;28;20443;-76
2021/03/14 05:00:51;;;;;;;9.85;2.85;;;;;;;6.80;98.99;99100.81;4988147;28;20061;-75
2021/03/14 05:03:21;;;;;;;13.27;2.92;;;;;;;6.77;99.48;99114.16;4974309;28;20031;-76
2021/03/14 05:05:46;;;;;;;8.95;2.95;;;;;;;6.78;99.58;99103.09;4974631;28;20025;-76
2021/03/14 05:08:17;;;;;;;12.23;3.00;;;;;;;6.62;100.00;99105.22;4971775;28;20027;-75
2021/03/14 05:10:44;;;;;;;12.50;2.95;;;;;;;6.48;100.00;99115.00;4973096;28;20097;-76
2021/03/14 05:13:10;;;;;;;12.07;3.72;;;;;;;6.66;99.50;99135.44;4965610;28;20027;-75
2021/03/14 05:15:37;;;;;;;12.02;3.35;;;;;;;6.62;99.32;99115.91;4967382;28;20043;-76
2021/03/14 05:18:03;;;;;;;9.40;2.78;;;;;;;6.64;99.31;99148.41;4974523;28;20479;-76
2021/03/14 05:20:29;;;;;;;11.52;2.97;;;;;;;6.76;99.04;99137.47;4960667;28;20399;-76
2021/03/14 05:22:56;;;;;;;8.30;2.85;;;;;;;6.73;98.95;99153.47;4964964;28;20097;-73
2021/03/14 05:25:22;;;;;;;12.10;2.60;;;;;;;6.70;98.95;99165.69;4981608;28;20066;-76
2021/03/14 05:27:50;;;;;;;10.73;2.75;;;;;;;6.65;98.76;99168.69;4973373;28;20038;-76
2021/03/14 05:30:21;;;;;;;9.75;2.70;;;;;;;6.80;98.18;99182.97;4970639;28;20026;-76
2021/03/14 05:32:48;;;;;;;17.88;2.95;;;;;;;6.73;99.08;99188.25;4964282;28;20500;-76
2021/03/14 05:35:14;;;;;;;9.48;2.80;;;;;;;6.82;98.27;99200.22;4972766;28;20414;-75
2021/03/14 05:37:40;;;;;;;14.73;2.78;;;;;;;6.84;97.92;99189.91;4972169;28;20042;-76
2021/03/14 05:40:06;;;;;;;15.55;3.03;;;;;;;6.90;98.46;99204.50;4980140;28;20526;-75
2021/03/14 05:42:33;;;;;;;11.43;2.85;;;;;;;6.98;98.73;99216.84;4973170;28;20798;-74
2021/03/14 05:44:59;;;;;;;10.63;2.63;;;;;;;6.89;98.50;99216.34;4965343;28;20038;-76
2021/03/14 05:47:24;;;;;;;17.23;2.67;;;;;;;7.01;98.12;99229.47;4973173;28;20506;-76
2021/03/14 05:49:51;;;;;;;20.95;3.17;;;;;;;6.98;98.00;99240.91;4979650;28;20023;-76
2021/03/14 05:52:18;;;;;;;11.27;3.00;;;;;;;6.93;97.70;99240.47;4971560;28;20034;-73
2021/03/14 05:54:50;;;;;;;9.52;3.10;;;;;;;6.88;97.86;99241.56;4968796;28;20034;-76
2021/03/14 05:57:18;;;;;;;;;;;;;;;6.98;97.50;99240.91;4973312;28;20454;-75
2021/03/14 05:59:49;;;;;;;9.43;2.78;;;;;;;6.95;97.41;99255.00;4968216;28;19918;-76
2021/03/14 06:02:17;;;;;;;8.07;3.17;;;;;;;7.03;97.32;99272.69;4971901;28;20031;-76
2021/03/14 06:04:42;;;;;;;16.58;3.45;;;;;;;7.00;97.76;99262.72;4982229;28;20018;-76
2021/03/14 06:07:08;;;;;;;14.93;3.30;;;;;;;7.02;98.07;99281.88;4972754;28;20034;-76
2021/03/14 06:09:34;;;;;;;15.00;3.42;;;;;;;7.02;98.35;99287.22;4964158;28;20039;-76
2021/03/14 06:11:59;;;;;;;8.10;2.55;;;;;;;7.09;97.91;99283.84;4969463;28;20031;-75
2021/03/14 06:14:24;;;;;;;11.52;3.13;;;;;;;7.06;98.31;99298.75;4971783;28;20032;-76
2021/03/14 06:16:50;;;;;;;11.38;2.97;;;;;;;7.13;98.20;99304.16;4970873;28;20030;-76
2021/03/14 06:19:16;;;;;;;10.82;3.08;;;;;;;7.16;98.21;99308.03;4973624;28;20038;-74
2021/03/14 06:21:41;;;;;;;11.18;3.40;;;;;;;7.15;98.19;99317.19;4965751;28;20415;-75
2021/03/14 06:24:09;;;;;;;12.65;4.07;;;;;;;7.16;98.11;99324.09;4971605;28;20030;-75
2021/03/14 06:26:38;;;;;;;12.52;3.10;;;;;;;7.08;98.48;99325.88;4972014;28;20113;-76
2021/03/14 06:29:19;;;;;;;12.05;3.80;;;;;;;7.12;99.04;99331.31;4973010;28;20635;-76
2021/03/14 06:31:57;;;;;;;16.98;4.13;;;;;;;7.17;98.19;99334.44;4969395;28;20031;-76
2021/03/14 06:34:27;;;;;;;12.85;3.05;;;;;;;7.26;98.55;99342.16;4965596;28;20038;-75
2021/03/14 06:36:55;;;;;;;11.90;3.25;;;;;;;7.11;99.57;99351.16;4959153;28;20034;-75
2021/03/14 06:39:26;;;;;;;13.07;2.97;;;;;;;7.20;98.68;99359.72;4972185;28;20088;-75
2021/03/14 06:41:51;;;;;;;11.55;3.28;;;;;;;7.18;99.39;99360.06;4968998;28;20085;-74
2021/03/14 06:44:27;;;;;;;13.07;3.03;;;;;;;7.13;99.52;99372.97;4962862;28;20059;-74
2021/03/14 06:46:53;;;;;;;15.32;3.50;;;;;;;7.25;99.64;99372.75;4971929;28;20078;-74
2021/03/14 06:49:21;;;;;;;17.55;3.40;;;;;;;7.26;99.51;99383.09;4971636;28;20480;-75
2021/03/14 06:51:51;;;;;;;21.20;3.70;;;;;;;7.25;100.00;99392.28;4970306;28;20553;-75
2021/03/14 06:54:17;;;;;;;18.52;4.38;;;;;;;7.35;99.61;99396.22;4966988;28;20479;-74
2021/03/14 06:57:11;;;;;;;14.95;3.80;;;;;;;7.43;98.91;99408.56;4961084;28;20043;-74
2021/03/14 06:59:44;;;;;;;14.07;3.80;;;;;;;7.34;99.16;99407.31;4968739;28;20043;-75
2021/03/14 07:02:14;;;;;;;19.25;3.63;;;;;;;7.41;99.11;99418.09;4977287;28;20043;-75
2021/03/14 07:04:48;;;;;;;16.08;3.33;;;;;;;7.30;100.00;99429.44;4968618;28;20030;-75
2021/03/14 07:07:19;;;;;;;14.77;3.35;;;;;;;7.41;99.69;99445.66;4971997;28;20041;-75
2021/03/14 07:09:46;;;;;;;18.60;3.40;;;;;;;7.41;100.00;99452.91;4970937;28;20035;-75
2021/03/14 07:12:18;;;;;;;20.02;3.85;;;;;;;7.39;100.00;99455.97;4966963;28;20071;-75
2021/03/14 07:14:43;;;;;;;19.60;3.50;;;;;;;7.43;99.95;99469.38;4961225;28;20051;-75
2021/03/14 07:17:09;;;;;;;16.63;3.50;;;;;;;7.53;100.00;99464.16;4967741;28;20027;-75
2021/03/14 07:19:37;;;;;;;14.38;3.47;;;;;;;7.52;100.00;99480.59;4953220;28;20075;-75
2021/03/14 07:22:04;;;;;;;14.98;3.40;;;;;;;7.52;100.00;99486.72;4965957;28;20484;-75
2021/03/14 07:24:36;;;;;;;16.15;3.42;;;;;;;7.54;99.79;99500.53;4963532;28;20435;-75
2021/03/14 07:27:04;;;;;;;11.75;3.75;;;;;;;7.58;98.86;99495.22;4966872;28;20042;-75
2021/03/14 07:29:31;;;;;;;17.58;2.97;;;;;;;7.66;98.39;99520.97;4964370;28;20034;-74
2021/03/14 07:31:58;;;;;;;13.27;3.40;;;;;;;7.63;98.77;99508.28;4969459;28;20435;-75
2021/03/14 07:34:24;;;;;;;11.63;3.30;;;;;;;7.54;99.21;99511.25;4970869;28;20039;-74
2021/03/14 07:36:51;;;;;;;16.17;3.60;;;;;;;7.58;98.94;99524.69;4964018;28;20039;-75
2021/03/14 07:39:17;;;;;;;16.88;4.07;;;;;;;7.64;99.12;99531.28;4967833;28;20043;-75
2021/03/14 07:41:43;;;;;;;15.35;3.58;;;;;;;7.56;99.28;99529.63;4967316;28;20089;-74
2021/03/14 07:44:10;;;;;;;17.50;3.15;;;;;;;7.54;100.00;99530.00;4966234;28;20498;-75
2021/03/14 07:46:35;;;;;;;15.82;3.35;;;;;;;7.51;100.00;99538.75;4968204;28;20034;-74
2021/03/14 07:49:03;;;;;;;16.60;3.25;;;;;;;7.53;100.00;99549.88;4961071;28;20129;-75
2021/03/14 07:51:30;;;;;;;13.32;2.75;;;;;;;7.58;100.00;99560.28;4967483;28;20030;-75
2021/03/14 07:54:02;;;;;;;11.85;3.17;;;;;;;7.56;99.31;99562.56;4967601;28;20043;-75
2021/03/14 07:56:31;;;;;;;;;;;;;;;7.54;99.38;99569.41;4964807;28;20539;-76
2021/03/14 07:58:57;;;;;;;16.85;3.17;;;;;;;7.50;99.95;99569.34;4970044;28;20013;-75
2021/03/14 08:01:28;;;;;;;21.00;3.03;;;;;;;7.56;100.00;99586.66;4974187;28;20125;-75
2021/03/14 08:03:56;;;;;;;16.98;3.30;;;;;;;7.61;100.00;99590.91;4973213;28;20035;-75
2021/03/14 08:06:41;;;;;;;20.77;3.15;;;;;;;7.70;99.79;99591.44;4968698;28;20038;-74
2021/03/14 08:09:07;;;;;;;14.48;3.20;;;;;;;7.71;99.23;99588.41;4971599;28;20137;-75
2021/03/14 08:11:32;;;;;;;15.68;3.50;;;;;;;7.74;99.46;99603.00;4962924;28;20212;-75
2021/03/14 08:13:58;;;;;;;13.13;3.47;;;;;;;7.64;100.00;99600.94;4969981;28;20066;-75
2021/03/14 08:16:25;;;;;;;19.83;3.20;;;;;;;7.71;98.98;99611.72;4970912;28;20126;-75
2021/03/14 08:18:52;;;;;;;17.00;3.20;;;;;;;7.63;99.52;99621.56;4974444;28;20117;-75
2021/03/14 08:21:21;;;;;;;21.23;3.95;;;;;;;7.78;99.18;99630.63;4966972;28;20031;-75
2021/03/14 08:23:52;;;;;;;19.42;3.25;;;;;;;7.82;99.30;99640.22;4962887;28;20035;-74
2021/03/14 08:26:27;;;;;;;11.65;3.20;;;;;;;7.78;99.13;99642.09;4970862;28;20109;-74
2021/03/14 08:29:02;;;;;;;14.10;3.10;;;;;;;7.87;98.77;99644.53;4965590;28;20066;-74
2021/03/14 08:31:47;;;;;;;17.00;3.30;;;;;;;7.80;99.33;99660.50;4972975;28;20516;-75
2021/03/14 08:34:29;;;;;;;14.60;3.35;;;;;;;7.86;99.43;99656.34;4970322;28;20042;-75
2021/03/14 08:36:56;;;;;;;10.55;3.38;;;;;;;8.06;98.54;99665.84;4972488;28;20089;-74
2021/03/14 08:39:33;;;;;;;15.52;3.15;;;;;;;8.08;98.46;99668.94;4984113;28;20033;-74
2021/03/14 08:42:07;;;;;;;17.15;3.28;;;;;;;8.12;98.52;99672.44;4968773;28;20027;-75
2021/03/14 08:44:45;;;;;;;16.00;3.70;;;;;;;8.15;98.18;99677.06;4966358;28;20035;-74
2021/03/14 08:47:26;;;;;;;17.95;3.13;;;;;;;8.12;97.89;99683.19;4968192;28;20039;-75
2021/03/14 08:50:02;;;;;;;19.02;3.20;;;;;;;8.04;99.05;99679.63;4958439;28;20515;-75
2021/03/14 08:52:39;;;;;;;7.72;3.10;;;;;;;8.07;99.80;99686.94;4986653;28;20030;-75
2021/03/14 08:55:15;;;;;;;19.55;3.63;;;;;;;8.17;99.79;99675.59;4973580;28;20090;-74
2021/03/14 08:57:41;;;;;;;14.52;3.42;;;;;;;8.34;99.26;99682.38;4952330;28;20106;-75
2021/03/14 09:00:14;;;;;;;19.60;3.83;;;;;;;8.39;98.78;99692.78;4970090;28;20063;-75
2021/03/14 09:02:45;;;;;;;17.10;3.55;;;;;;;8.43;99.19;99707.00;4960865;28;20038;-75
2021/03/14 09:05:23;;;;;;;16.80;3.88;;;;;;;8.56;99.48;99697.59;4967110;28;20150;-75
2021/03/14 09:07:59;;;;;;;20.67;4.05;;;;;;;8.72;98.92;99692.03;4982533;28;20081;-74
2021/03/14 09:10:26;;;;;;;15.88;3.67;;;;;;;8.58;99.01;99703.38;4970366;28;20043;-75
2021/03/14 09:13:02;;;;;;;15.20;3.00;;;;;;;8.94;97.86;99705.31;4991744;23;20477;-76
2021/03/14 09:15:47;;;;;;;12.55;3.15;;;;;;;9.33;96.18;99711.09;4978467;28;20073;-76
2021/03/14 09:18:31;;;;;;;7.88;2.30;;;;;;;9.61;92.86;99715.97;4977721;28;20028;-75
2021/03/14 09:21:06;;;;;;;8.70;2.45;;;;;;;9.82;91.36;99722.31;4981565;28;20050;-76
2021/03/14 09:23:42;;;;;;;7.88;2.28;;;;;;;9.83;90.33;99729.22;4971012;28;20027;-76
2021/03/14 09:26:11;;;;;;;13.25;2.30;;;;;;;9.95;89.93;99730.84;4969666;28;20426;-75
2021/03/14 09:28:44;;;;;;;11.02;2.25;;;;;;;10.00;90.18;99738.56;4971736;28;20082;-76
2021/03/14 09:31:13;;;;;;;8.02;1.95;;;;;;;10.15;88.48;99745.63;4986525;28;20451;-76
2021/03/14 09:33:45;;;;;;;13.23;2.35;;;;;;;10.32;87.96;99744.97;4967527;28;20034;-76
2021/03/14 09:36:18;;;;;;;7.63;2.25;;;;;;;10.43;87.98;99750.44;4987958;28;20143;-79
2021/03/14 09:38:59;;;;;;;;;;;;;;;10.47;87.04;99751.97;4985905;28;20104;-76
2021/03/14 09:41:44;;;;;;;10.27;1.50;;;;;;;10.85;85.52;99756.81;4971254;28;20342;-76
2021/03/14 09:44:21;;;;;;;11.38;1.70;;;;;;;11.05;84.16;99759.19;4954917;28;20117;-76
2021/03/14 09:46:56;;;;;;;8.90;2.30;;;;;;;11.28;81.31;99762.34;4974079;28;20041;-75
2021/03/14 09:50:20;;;;;;;15.15;2.10;;;;;;;11.54;78.97;99753.91;4959936;28;20058;-77
2021/03/14 09:52:52;;;;;;;9.93;1.67;;;;;;;11.71;77.74;99762.06;4958953;28;20053;-78
2021/03/14 09:55:30;;;;;;;5.65;1.48;;;;;;;11.74;78.83;99774.78;4935169;28;20023;-77
2021/03/14 09:57:57;;;;;;;13.38;1.85;;;;;;;11.66;80.17;99772.47;4966319;28;20525;-77
2021/03/14 10:00:31;;;;;;;8.93;2.17;;;;;;;11.65;79.64;99779.78;4969699;28;20121;-77
2021/03/14 10:03:08;;;;;;;4.53;1.30;;;;;;;11.66;78.75;99785.94;4969662;28;20031;-76
2021/03/14 10:05:51;;;;;;;7.50;1.58;;;;;;;11.61;76.28;99797.84;4989154;28;20034;-77
2021/03/14 10:08:32;;;;;;;9.85;1.80;;;;;;;11.34;76.91;99799.31;4971776;28;20034;-76
2021/03/14 10:10:59;;;;;;;10.07;1.70;;;;;;;11.25;78.70;99807.00;4983284;28;20418;-76
2021/03/14 10:13:27;;;;;;;7.47;1.75;;;;;;;11.04;79.88;99814.22;4971976;28;20042;-77
2021/03/14 10:15:57;;;;;;;9.68;2.08;;;;;;;10.84;79.70;99816.41;4970730;28;20458;-75
2021/03/14 10:18:25;;;;;;;10.68;1.55;;;;;;;10.83;80.76;99818.34;4968002;28;20444;-77
2021/03/14 10:21:12;;;;;;;8.55;2.08;;;;;;;10.89;81.28;99816.06;4987915;28;20041;-76
2021/03/14 10:23:38;;;;;;;12.05;1.60;;;;;;;11.00;80.55;99813.41;4958067;28;20030;-77
2021/03/14 10:26:24;;;;;;;10.00;1.40;;;;;;;11.08;78.36;99815.78;4971262;28;20369;-77
2021/03/14 10:28:56;;;;;;;4.43;1.02;;;;;;;11.14;76.60;99816.19;4987501;28;20031;-76
2021/03/14 10:31:34;;;;;;;7.18;1.25;;;;;;;11.22;76.07;99818.53;4974589;28;20077;-76
2021/03/14 10:34:08;;;;;;;7.45;1.10;;;;;;;11.26;75.99;99823.94;4968489;28;20031;-76
2021/03/14 10:36:35;;;;;;;7.20;1.50;;;;;;;11.21;72.73;99835.84;4962035;28;20035;-77
2021/03/14 10:39:05;;;;;;;11.07;1.58;;;;;;;11.01;74.15;99839.22;4972416;28;20030;-77
2021/03/14 10:41:43;;;;;;;2.85;0.98;;;;;;;10.50;80.88;99853.53;4968792;28;20034;-77
2021/03/14 10:44:11;;;;;;;4.03;1.13;;;;;;;10.33;85.47;99851.47;4967640;28;20030;-76
2021/03/14 10:46:54;;;;;;;3.55;0.85;;;;;;;10.06;88.52;99858.13;4967349;28;20031;-76
2021/03/14 10:49:25;;;;;;;4.63;1.20;;;;;;;10.01;91.44;99870.00;4970199;28;20041;-77
2021/03/14 10:51:58;;;;;;;9.95;1.73;;;;;;;9.82;93.22;99866.72;4968447;28;20502;-76
2021/03/14 10:54:32;;;;;;;5.75;1.73;;;;;;;10.14;95.42;99853.63;4986542;28;20037;-76
2021/03/14 10:56:59;;;;;;;11.20;1.40;;;;;;;10.55;94.83;99855.09;4970495;28;20522;-77
2021/03/14 10:59:26;;;;;;;9.73;1.73;;;;;;;10.82;95.43;99849.13;4950992;28;20027;-77
2021/03/14 11:02:34;;;;;;;5.40;1.45;;;;;;;11.20;95.58;99853.19;4956278;28;20050;-76
2021/03/14 11:05:00;;;;;;;10.27;2.10;;;;;;;11.49;94.33;99845.97;4973295;28;20034;-76
2021/03/14 11:07:36;;;;;;;7.32;1.88;;;;;;;11.58;92.74;99863.34;4977551;28;20491;-76
2021/03/14 11:10:26;;;;;;;8.73;1.95;;;;;;;11.48;90.18;99863.28;4957029;28;20054;-77
2021/03/14 11:13:20;;;;;;;10.38;1.77;;;;;;;11.25;88.01;99897.84;4971456;28;20558;-76
2021/03/14 11:16:07;;;;;;;4.13;1.00;;;;;;;10.86;87.10;99882.22;4972868;28;20495;-77
2021/03/14 11:18:39;;;;;;;5.45;1.00;;;;;;;10.59;87.46;99888.19;4985494;28;20097;-77
2021/03/14 11:21:16;;;;;;;6.40;0.90;;;;;;;10.15;90.39;99890.91;4960561;28;20082;-77
2021/03/14 11:23:45;;;;;;;3.90;1.10;;;;;;;9.85;91.91;99898.25;4981190;28;20496;-76
2021/03/14 11:26:10;;;;;;;4.68;1.15;;;;;;;9.77;92.72;99891.25;4982515;28;20058;-77
2021/03/14 11:28:46;;;;;;;6.68;1.10;;;;;;;9.79;94.84;99894.34;4984767;28;20065;-77
2021/03/14 11:31:16;;;;;;;5.18;1.00;;;;;;;9.87;93.26;99893.28;4967760;28;20035;-77
2021/03/14 11:33:42;;;;;;;2.45;0.80;;;;;;;9.84;93.96;99899.38;4984453;28;20117;-77
2021/03/14 11:36:14;;;;;;;6.53;1.33;;;;;;;9.86;94.64;99889.03;4979066;28;20376;-77
2021/03/14 11:38:52;;;;;;;6.75;1.20;;;;;;;10.13;95.67;99887.81;4960513;28;20097;-75
2021/03/14 11:41:33;;;;;;;6.45;1.40;;;;;;;10.49;94.35;99894.28;4972954;28;20041;-76
2021/03/14 11:44:09;;;;;;;7.93;1.63;;;;;;;10.75;93.74;99886.00;4974089;28;20084;-77